sensor_id;sensor_type;location;lat;lon;timestamp;pressure;altitude;pressure_sealevel;temperature;humidity
4767;BME280;2397;53.576;9.746;2022-11-20T00:01:24;101213.34;;;1.14;100.00
4767;BME280;2397;53.576;9.746;2022-11-20T00:03:52;101214.22;;;0.99;100.00
4767;BME280;2397;53.576;9.746;2022-11-20T00:06:20;101216.13;;;1.03;100.00
4767;BME280;2397;53.576;9.746;2022-11-20T00:08:47;101203.69;;;1.08;100.00
4767;BME280;2397;53.576;9.746;2022-11-20T00:11:19;101206.00;;;0.90;100.00
4767;BME280;2397;53.576;9.746;2022-11-20T00:13:47;101202.41;;;0.86;100.00
4767;BME280;2397;53.576;9.746;2022-11-20T00:16:16;101203.03;;;0.97;100.00
4767;BME280;2397;53.576;9.746;2022-11-20T00:18:43;101194.59;;;0.98;100.00
4767;BME280;2397;53.576;9.746;2022-11-20T00:21:16;101198.19;;;1.02;100.00
4767;BME280;2397;53.576;9.746;2022-11-20T00:23:43;101199.81;;;1.15;100.00
4767;BME280;2397;53.576;9.746;2022-11-20T00:26:13;101197.78;;;1.09;100.00
4767;BME280;2397;53.576;9.746;2022-11-20T00:28:40;101205.69;;;1.14;100.00
4767;BME280;2397;53.576;9.746;2022-11-20T00:31:12;101202.97;;;1.11;100.00
4767;BME280;2397;53.576;9.746;2022-11-20T00:33:39;101202.94;;;0.96;100.00
4767;BME280;2397;53.576;9.746;2022-11-20T00:36:08;101206.28;;;0.95;100.00
4767;BME280;2397;53.576;9.746;2022-11-20T00:38:35;101197.66;;;0.93;100.00
4767;BME280;2397;53.576;9.746;2022-11-20T00:41:04;101198.94;;;0.99;100.00
4767;BME280;2397;53.576;9.746;2022-11-20T00:43:31;101206.34;;;1.10;100.00
4767;BME280;2397;53.576;9.746;2022-11-20T00:45:58;101195.03;;;0.91;100.00
4767;BME280;2397;53.576;9.746;2022-11-20T00:48:25;101202.94;;;0.96;100.00
4767;BME280;2397;53.576;9.746;2022-11-20T00:50:51;101201.16;;;1.08;100.00
4767;BME280;2397;53.576;9.746;2022-11-20T00:53:18;101199.63;;;1.12;100.00
4767;BME280;2397;53.576;9.746;2022-11-20T00:55:55;101197.69;;;1.08;100.00
4767;BME280;2397;53.576;9.746;2022-11-20T00:58:22;101192.06;;;0.98;100.00
4767;BME280;2397;53.576;9.746;2022-11-20T01:00:49;101196.13;;;1.10;100.00
4767;BME280;2397;53.576;9.746;2022-11-20T01:03:17;101198.13;;;1.00;100.00
4767;BME280;2397;53.576;9.746;2022-11-20T01:05:49;101194.78;;;1.01;100.00
4767;BME280;2397;53.576;9.746;2022-11-20T01:08:15;101196.47;;;1.01;100.00
4767;BME280;2397;53.576;9.746;2022-11-20T01:10:42;101192.84;;;0.97;100.00
4767;BME280;2397;53.576;9.746;2022-11-20T01:13:08;101196.94;;;0.80;100.00
4767;BME280;2397;53.576;9.746;2022-11-20T01:15:53;101188.53;;;0.96;100.00
4767;BME280;2397;53.576;9.746;2022-11-20T01:18:20;101187.31;;;1.04;100.00
4767;BME280;2397;53.576;9.746;2022-11-20T01:20:46;101175.97;;;0.99;100.00
4767;BME280;2397;53.576;9.746;2022-11-20T01:23:13;101179.31;;;0.98;100.00
4767;BME280;2397;53.576;9.746;2022-11-20T01:25:39;101176.50;;;1.09;100.00
4767;BME280;2397;53.576;9.746;2022-11-20T01:28:06;101173.44;;;0.99;100.00
4767;BME280;2397;53.576;9.746;2022-11-20T01:30:32;101174.25;;;0.70;100.00
4767;BME280;2397;53.576;9.746;2022-11-20T01:32:58;101173.25;;;0.96;100.00
4767;BME280;2397;53.576;9.746;2022-11-20T01:35:25;101175.91;;;1.13;100.00
4767;BME280;2397;53.576;9.746;2022-11-20T01:37:51;101163.94;;;1.12;100.00
4767;BME280;2397;53.576;9.746;2022-11-20T01:40:18;101161.31;;;1.10;100.00
4767;BME280;2397;53.576;9.746;2022-11-20T01:42:47;101164.28;;;1.03;100.00
4767;BME280;2397;53.576;9.746;2022-11-20T01:45:56;101157.97;;;0.96;100.00
4767;BME280;2397;53.576;9.746;2022-11-20T01:48:26;101139.91;;;0.93;100.00
4767;BME280;2397;53.576;9.746;2022-11-20T01:50:57;101140.38;;;1.16;100.00
4767;BME280;2397;53.576;9.746;2022-11-20T01:53:28;101138.44;;;1.12;100.00
4767;BME280;2397;53.576;9.746;2022-11-20T01:55:59;101141.31;;;0.88;100.00
4767;BME280;2397;53.576;9.746;2022-11-20T01:58:30;101138.38;;;0.67;100.00
4767;BME280;2397;53.576;9.746;2022-11-20T02:00:58;101145.50;;;0.44;100.00
4767;BME280;2397;53.576;9.746;2022-11-20T02:03:25;101141.16;;;0.28;100.00
4767;BME280;2397;53.576;9.746;2022-11-20T02:08:33;101142.81;;;0.84;100.00
4767;BME280;2397;53.576;9.746;2022-11-20T02:11:01;101135.97;;;0.98;100.00
4767;BME280;2397;53.576;9.746;2022-11-20T02:13:28;101134.38;;;0.85;100.00
4767;BME280;2397;53.576;9.746;2022-11-20T02:16:25;101129.06;;;0.67;100.00
4767;BME280;2397;53.576;9.746;2022-11-20T02:18:53;101130.50;;;0.77;100.00
4767;BME280;2397;53.576;9.746;2022-11-20T02:21:33;101130.69;;;0.80;100.00
4767;BME280;2397;53.576;9.746;2022-11-20T02:24:06;101126.81;;;0.87;100.00
4767;BME280;2397;53.576;9.746;2022-11-20T02:26:39;101129.00;;;0.81;100.00
4767;BME280;2397;53.576;9.746;2022-11-20T02:29:07;101121.72;;;0.87;100.00
4767;BME280;2397;53.576;9.746;2022-11-20T02:31:36;101124.19;;;1.00;100.00
4767;BME280;2397;53.576;9.746;2022-11-20T02:34:02;101119.88;;;0.84;100.00
4767;BME280;2397;53.576;9.746;2022-11-20T02:36:31;101125.22;;;0.74;100.00
4767;BME280;2397;53.576;9.746;2022-11-20T02:38:58;101115.22;;;0.92;100.00
4767;BME280;2397;53.576;9.746;2022-11-20T02:41:36;101121.56;;;1.14;100.00
4767;BME280;2397;53.576;9.746;2022-11-20T02:44:03;101120.78;;;1.15;100.00
4767;BME280;2397;53.576;9.746;2022-11-20T02:46:30;101117.25;;;1.13;100.00
4767;BME280;2397;53.576;9.746;2022-11-20T02:48:57;101115.50;;;1.12;100.00
4767;BME280;2397;53.576;9.746;2022-11-20T02:51:24;101111.34;;;1.14;100.00
4767;BME280;2397;53.576;9.746;2022-11-20T02:53:50;101106.81;;;1.23;100.00
4767;BME280;2397;53.576;9.746;2022-11-20T02:56:17;101107.84;;;1.12;100.00
4767;BME280;2397;53.576;9.746;2022-11-20T02:58:43;101107.16;;;0.99;100.00
4767;BME280;2397;53.576;9.746;2022-11-20T03:01:10;101108.38;;;0.91;100.00
4767;BME280;2397;53.576;9.746;2022-11-20T03:03:36;101104.13;;;0.92;100.00
4767;BME280;2397;53.576;9.746;2022-11-20T03:06:03;101118.47;;;0.46;100.00
4767;BME280;2397;53.576;9.746;2022-11-20T03:08:29;101108.00;;;0.70;100.00
4767;BME280;2397;53.576;9.746;2022-11-20T03:10:55;101102.47;;;0.92;100.00
4767;BME280;2397;53.576;9.746;2022-11-20T03:13:22;101110.09;;;0.62;100.00
4767;BME280;2397;53.576;9.746;2022-11-20T03:15:48;101110.03;;;0.91;100.00
4767;BME280;2397;53.576;9.746;2022-11-20T03:18:14;101095.28;;;1.00;100.00
4767;BME280;2397;53.576;9.746;2022-11-20T03:20:41;101096.41;;;1.05;100.00
4767;BME280;2397;53.576;9.746;2022-11-20T03:23:07;101092.63;;;0.98;100.00
4767;BME280;2397;53.576;9.746;2022-11-20T03:25:34;101099.91;;;0.62;100.00
4767;BME280;2397;53.576;9.746;2022-11-20T03:28:01;101100.56;;;0.45;100.00
4767;BME280;2397;53.576;9.746;2022-11-20T03:30:28;101089.88;;;0.65;100.00
4767;BME280;2397;53.576;9.746;2022-11-20T03:32:56;101098.66;;;0.70;100.00
4767;BME280;2397;53.576;9.746;2022-11-20T03:35:22;101097.63;;;0.82;100.00
4767;BME280;2397;53.576;9.746;2022-11-20T03:37:49;101095.00;;;0.95;100.00
4767;BME280;2397;53.576;9.746;2022-11-20T03:40:15;101096.50;;;1.07;100.00
4767;BME280;2397;53.576;9.746;2022-11-20T03:42:42;101091.13;;;1.02;100.00
4767;BME280;2397;53.576;9.746;2022-11-20T03:45:12;101092.13;;;1.04;100.00
4767;BME280;2397;53.576;9.746;2022-11-20T03:47:39;101088.50;;;1.00;100.00
4767;BME280;2397;53.576;9.746;2022-11-20T03:50:06;101080.59;;;0.96;100.00
4767;BME280;2397;53.576;9.746;2022-11-20T03:52:32;101079.19;;;0.86;100.00
4767;BME280;2397;53.576;9.746;2022-11-20T03:54:59;101077.16;;;0.80;100.00
4767;BME280;2397;53.576;9.746;2022-11-20T03:57:25;101073.81;;;0.81;100.00
4767;BME280;2397;53.576;9.746;2022-11-20T03:59:52;101079.38;;;0.89;100.00
4767;BME280;2397;53.576;9.746;2022-11-20T04:02:18;101079.38;;;0.89;100.00
4767;BME280;2397;53.576;9.746;2022-11-20T04:04:45;101074.97;;;0.86;100.00
4767;BME280;2397;53.576;9.746;2022-11-20T04:07:11;101073.88;;;0.83;100.00
4767;BME280;2397;53.576;9.746;2022-11-20T04:09:38;101070.91;;;0.90;100.00
4767;BME280;2397;53.576;9.746;2022-11-20T04:12:04;101063.19;;;0.88;100.00
4767;BME280;2397;53.576;9.746;2022-11-20T04:14:30;101074.44;;;0.77;100.00
4767;BME280;2397;53.576;9.746;2022-11-20T04:16:57;101073.53;;;0.77;100.00
4767;BME280;2397;53.576;9.746;2022-11-20T04:19:24;101069.06;;;0.73;100.00
4767;BME280;2397;53.576;9.746;2022-11-20T04:21:50;101069.34;;;0.77;100.00
4767;BME280;2397;53.576;9.746;2022-11-20T04:24:16;101067.56;;;0.61;100.00
4767;BME280;2397;53.576;9.746;2022-11-20T04:26:43;101063.34;;;0.77;100.00
4767;BME280;2397;53.576;9.746;2022-11-20T04:29:11;101058.59;;;0.83;100.00
4767;BME280;2397;53.576;9.746;2022-11-20T04:31:37;101064.00;;;0.87;100.00
4767;BME280;2397;53.576;9.746;2022-11-20T04:34:05;101057.72;;;0.97;100.00
4767;BME280;2397;53.576;9.746;2022-11-20T04:36:33;101061.69;;;0.92;100.00
4767;BME280;2397;53.576;9.746;2022-11-20T04:39:02;101060.31;;;0.39;100.00
4767;BME280;2397;53.576;9.746;2022-11-20T04:41:31;101060.09;;;0.21;100.00
4767;BME280;2397;53.576;9.746;2022-11-20T04:43:59;101054.34;;;0.10;100.00
4767;BME280;2397;53.576;9.746;2022-11-20T04:46:31;101059.78;;;0.30;100.00
4767;BME280;2397;53.576;9.746;2022-11-20T04:48:59;101065.28;;;0.66;100.00
4767;BME280;2397;53.576;9.746;2022-11-20T04:51:26;101062.38;;;0.75;100.00
4767;BME280;2397;53.576;9.746;2022-11-20T04:53:53;101048.84;;;0.61;100.00
4767;BME280;2397;53.576;9.746;2022-11-20T04:56:19;101049.19;;;0.52;100.00
4767;BME280;2397;53.576;9.746;2022-11-20T04:58:45;101045.25;;;0.72;100.00
4767;BME280;2397;53.576;9.746;2022-11-20T05:01:17;101052.81;;;0.85;100.00
4767;BME280;2397;53.576;9.746;2022-11-20T05:03:44;101048.72;;;0.44;100.00
4767;BME280;2397;53.576;9.746;2022-11-20T05:06:13;101050.44;;;0.30;100.00
4767;BME280;2397;53.576;9.746;2022-11-20T05:08:40;101048.31;;;0.66;100.00
4767;BME280;2397;53.576;9.746;2022-11-20T05:11:12;101037.84;;;0.62;100.00
4767;BME280;2397;53.576;9.746;2022-11-20T05:13:39;101037.00;;;0.76;100.00
4767;BME280;2397;53.576;9.746;2022-11-20T05:16:12;101038.19;;;0.53;100.00
4767;BME280;2397;53.576;9.746;2022-11-20T05:18:40;101036.88;;;0.45;100.00
4767;BME280;2397;53.576;9.746;2022-11-20T05:21:08;101044.38;;;0.72;100.00
4767;BME280;2397;53.576;9.746;2022-11-20T05:23:35;101038.28;;;0.69;100.00
4767;BME280;2397;53.576;9.746;2022-11-20T05:26:02;101038.53;;;0.59;100.00
4767;BME280;2397;53.576;9.746;2022-11-20T05:28:30;101037.31;;;0.52;100.00
4767;BME280;2397;53.576;9.746;2022-11-20T05:31:04;101033.09;;;0.68;100.00
4767;BME280;2397;53.576;9.746;2022-11-20T05:33:30;101029.66;;;0.38;100.00
4767;BME280;2397;53.576;9.746;2022-11-20T05:36:00;101030.63;;;0.40;100.00
4767;BME280;2397;53.576;9.746;2022-11-20T05:38:26;101032.28;;;-0.04;100.00
4767;BME280;2397;53.576;9.746;2022-11-20T05:40:53;101023.06;;;-0.02;100.00
4767;BME280;2397;53.576;9.746;2022-11-20T05:43:19;101026.00;;;0.19;100.00
4767;BME280;2397;53.576;9.746;2022-11-20T05:45:54;101023.16;;;0.43;100.00
4767;BME280;2397;53.576;9.746;2022-11-20T05:48:21;101014.13;;;0.33;100.00
4767;BME280;2397;53.576;9.746;2022-11-20T05:50:48;101011.72;;;-0.07;100.00
4767;BME280;2397;53.576;9.746;2022-11-20T05:53:14;101011.81;;;-0.34;100.00
4767;BME280;2397;53.576;9.746;2022-11-20T05:55:40;101015.41;;;-0.02;100.00
4767;BME280;2397;53.576;9.746;2022-11-20T05:58:07;101017.75;;;-0.33;100.00
4767;BME280;2397;53.576;9.746;2022-11-20T06:00:33;101008.97;;;0.03;100.00
4767;BME280;2397;53.576;9.746;2022-11-20T06:02:59;101010.38;;;0.13;100.00
4767;BME280;2397;53.576;9.746;2022-11-20T06:05:26;101007.03;;;0.14;100.00
4767;BME280;2397;53.576;9.746;2022-11-20T06:07:52;101009.28;;;-0.06;100.00
4767;BME280;2397;53.576;9.746;2022-11-20T06:10:19;101011.88;;;-0.19;100.00
4767;BME280;2397;53.576;9.746;2022-11-20T06:12:45;101007.91;;;-0.14;100.00
4767;BME280;2397;53.576;9.746;2022-11-20T06:15:12;101010.41;;;-0.29;100.00
4767;BME280;2397;53.576;9.746;2022-11-20T06:17:38;101007.56;;;-0.20;100.00
4767;BME280;2397;53.576;9.746;2022-11-20T06:20:05;101004.50;;;-0.14;100.00
4767;BME280;2397;53.576;9.746;2022-11-20T06:22:32;101006.38;;;-0.12;100.00
4767;BME280;2397;53.576;9.746;2022-11-20T06:24:58;101003.72;;;0.15;100.00
4767;BME280;2397;53.576;9.746;2022-11-20T06:27:24;101009.88;;;0.33;100.00
4767;BME280;2397;53.576;9.746;2022-11-20T06:29:51;101004.28;;;0.39;100.00
4767;BME280;2397;53.576;9.746;2022-11-20T06:32:17;101002.75;;;0.28;100.00
4767;BME280;2397;53.576;9.746;2022-11-20T06:34:44;100995.78;;;0.39;100.00
4767;BME280;2397;53.576;9.746;2022-11-20T06:37:10;100996.56;;;0.38;100.00
4767;BME280;2397;53.576;9.746;2022-11-20T06:39:36;101005.47;;;0.31;100.00
4767;BME280;2397;53.576;9.746;2022-11-20T06:42:03;100989.88;;;0.55;100.00
4767;BME280;2397;53.576;9.746;2022-11-20T06:44:29;100997.16;;;0.48;100.00
4767;BME280;2397;53.576;9.746;2022-11-20T06:46:56;100996.22;;;0.46;100.00
4767;BME280;2397;53.576;9.746;2022-11-20T06:49:22;101010.19;;;0.10;100.00
4767;BME280;2397;53.576;9.746;2022-11-20T06:51:49;101014.19;;;-0.09;100.00
4767;BME280;2397;53.576;9.746;2022-11-20T06:54:16;101020.31;;;-0.05;100.00
4767;BME280;2397;53.576;9.746;2022-11-20T06:56:42;101017.53;;;0.33;100.00
4767;BME280;2397;53.576;9.746;2022-11-20T06:59:12;101012.41;;;0.19;100.00
4767;BME280;2397;53.576;9.746;2022-11-20T07:01:38;101014.44;;;-0.32;100.00
4767;BME280;2397;53.576;9.746;2022-11-20T07:04:05;101009.59;;;0.14;100.00
4767;BME280;2397;53.576;9.746;2022-11-20T07:06:31;101007.50;;;-0.07;100.00
4767;BME280;2397;53.576;9.746;2022-11-20T07:08:58;101008.88;;;0.02;100.00
4767;BME280;2397;53.576;9.746;2022-11-20T07:11:24;100998.28;;;0.24;100.00
4767;BME280;2397;53.576;9.746;2022-11-20T07:13:50;100994.44;;;0.45;100.00
4767;BME280;2397;53.576;9.746;2022-11-20T07:16:17;100996.25;;;0.18;100.00
4767;BME280;2397;53.576;9.746;2022-11-20T07:18:44;100997.63;;;-0.44;100.00
4767;BME280;2397;53.576;9.746;2022-11-20T07:21:16;100994.91;;;-0.47;100.00
4767;BME280;2397;53.576;9.746;2022-11-20T07:23:43;100997.31;;;0.22;100.00
4767;BME280;2397;53.576;9.746;2022-11-20T07:26:10;100994.28;;;0.57;100.00
4767;BME280;2397;53.576;9.746;2022-11-20T07:28:37;100999.56;;;0.60;100.00
4767;BME280;2397;53.576;9.746;2022-11-20T07:31:04;100994.03;;;0.52;100.00
4767;BME280;2397;53.576;9.746;2022-11-20T07:33:33;100991.13;;;0.03;100.00
4767;BME280;2397;53.576;9.746;2022-11-20T07:36:08;101004.72;;;0.04;100.00
4767;BME280;2397;53.576;9.746;2022-11-20T07:38:35;101002.78;;;0.43;100.00
4767;BME280;2397;53.576;9.746;2022-11-20T07:41:03;101002.53;;;0.53;100.00
4767;BME280;2397;53.576;9.746;2022-11-20T07:43:30;101000.72;;;0.22;100.00
4767;BME280;2397;53.576;9.746;2022-11-20T07:45:57;100997.22;;;-0.37;100.00
4767;BME280;2397;53.576;9.746;2022-11-20T07:48:24;101008.31;;;-0.21;100.00
4767;BME280;2397;53.576;9.746;2022-11-20T07:50:54;101006.38;;;0.31;100.00
4767;BME280;2397;53.576;9.746;2022-11-20T07:53:20;101012.13;;;0.14;100.00
4767;BME280;2397;53.576;9.746;2022-11-20T07:55:47;101007.00;;;-0.01;100.00
4767;BME280;2397;53.576;9.746;2022-11-20T07:58:14;101004.00;;;0.20;100.00
4767;BME280;2397;53.576;9.746;2022-11-20T08:00:41;100999.03;;;0.51;100.00
4767;BME280;2397;53.576;9.746;2022-11-20T08:03:07;100996.91;;;0.74;100.00
4767;BME280;2397;53.576;9.746;2022-11-20T08:05:33;100991.03;;;0.75;100.00
4767;BME280;2397;53.576;9.746;2022-11-20T08:08:00;100995.09;;;0.86;100.00
4767;BME280;2397;53.576;9.746;2022-11-20T08:10:26;100992.47;;;0.84;100.00
4767;BME280;2397;53.576;9.746;2022-11-20T08:12:53;100999.63;;;0.77;100.00
4767;BME280;2397;53.576;9.746;2022-11-20T08:15:39;100997.25;;;0.80;100.00
4767;BME280;2397;53.576;9.746;2022-11-20T08:18:10;101000.00;;;0.68;100.00
4767;BME280;2397;53.576;9.746;2022-11-20T08:21:01;101000.44;;;0.76;100.00
4767;BME280;2397;53.576;9.746;2022-11-20T08:23:27;101000.63;;;0.79;100.00
4767;BME280;2397;53.576;9.746;2022-11-20T08:25:54;100998.00;;;0.77;100.00
4767;BME280;2397;53.576;9.746;2022-11-20T08:28:20;101002.44;;;0.66;100.00
4767;BME280;2397;53.576;9.746;2022-11-20T08:30:49;101003.78;;;0.75;100.00
4767;BME280;2397;53.576;9.746;2022-11-20T08:33:16;101004.72;;;0.62;100.00
4767;BME280;2397;53.576;9.746;2022-11-20T08:35:43;101004.38;;;0.85;100.00
4767;BME280;2397;53.576;9.746;2022-11-20T08:38:10;101008.78;;;0.88;100.00
4767;BME280;2397;53.576;9.746;2022-11-20T08:40:36;101010.72;;;0.92;100.00
4767;BME280;2397;53.576;9.746;2022-11-20T08:43:02;100998.22;;;0.97;100.00
4767;BME280;2397;53.576;9.746;2022-11-20T08:45:29;101011.03;;;1.13;100.00
4767;BME280;2397;53.576;9.746;2022-11-20T08:48:03;101005.97;;;0.98;100.00
4767;BME280;2397;53.576;9.746;2022-11-20T08:50:31;101002.53;;;0.68;100.00
4767;BME280;2397;53.576;9.746;2022-11-20T08:53:05;101005.38;;;0.87;100.00
4767;BME280;2397;53.576;9.746;2022-11-20T08:55:31;101007.44;;;0.95;100.00
4767;BME280;2397;53.576;9.746;2022-11-20T08:57:58;101014.63;;;1.17;100.00
4767;BME280;2397;53.576;9.746;2022-11-20T09:00:24;101016.16;;;1.13;100.00
4767;BME280;2397;53.576;9.746;2022-11-20T09:02:51;101022.84;;;1.11;100.00
4767;BME280;2397;53.576;9.746;2022-11-20T09:05:18;101015.13;;;1.10;100.00
4767;BME280;2397;53.576;9.746;2022-11-20T09:07:44;101016.41;;;1.18;100.00
4767;BME280;2397;53.576;9.746;2022-11-20T09:10:11;101021.59;;;1.19;100.00
4767;BME280;2397;53.576;9.746;2022-11-20T09:12:53;101017.63;;;1.25;100.00
4767;BME280;2397;53.576;9.746;2022-11-20T09:15:21;101015.44;;;1.16;100.00
4767;BME280;2397;53.576;9.746;2022-11-20T09:17:55;101017.81;;;1.28;100.00
4767;BME280;2397;53.576;9.746;2022-11-20T09:20:22;101020.63;;;1.17;100.00
4767;BME280;2397;53.576;9.746;2022-11-20T09:22:48;101018.44;;;1.09;100.00
4767;BME280;2397;53.576;9.746;2022-11-20T09:25:15;101011.06;;;0.98;100.00
4767;BME280;2397;53.576;9.746;2022-11-20T09:27:41;101012.03;;;1.00;100.00
4767;BME280;2397;53.576;9.746;2022-11-20T09:30:11;101012.66;;;0.96;100.00
4767;BME280;2397;53.576;9.746;2022-11-20T09:32:40;101015.66;;;0.89;100.00
4767;BME280;2397;53.576;9.746;2022-11-20T09:35:08;101021.97;;;0.96;100.00
4767;BME280;2397;53.576;9.746;2022-11-20T09:37:34;101017.28;;;1.03;100.00
4767;BME280;2397;53.576;9.746;2022-11-20T09:40:01;101020.31;;;0.96;100.00
4767;BME280;2397;53.576;9.746;2022-11-20T09:42:32;101017.66;;;0.80;100.00
4767;BME280;2397;53.576;9.746;2022-11-20T09:45:37;101022.38;;;1.03;100.00
4767;BME280;2397;53.576;9.746;2022-11-20T09:48:32;101022.72;;;1.25;100.00
4767;BME280;2397;53.576;9.746;2022-11-20T09:51:28;101011.69;;;1.40;100.00
4767;BME280;2397;53.576;9.746;2022-11-20T09:54:31;101013.94;;;1.51;100.00
4767;BME280;2397;53.576;9.746;2022-11-20T09:57:01;101012.84;;;1.46;100.00
4767;BME280;2397;53.576;9.746;2022-11-20T09:59:38;101003.16;;;1.09;100.00
4767;BME280;2397;53.576;9.746;2022-11-20T10:02:19;101001.16;;;1.34;100.00
4767;BME280;2397;53.576;9.746;2022-11-20T10:04:57;101003.28;;;1.58;100.00
4767;BME280;2397;53.576;9.746;2022-11-20T10:07:40;100998.34;;;1.61;100.00
4767;BME280;2397;53.576;9.746;2022-11-20T10:10:38;100998.31;;;1.45;100.00
4767;BME280;2397;53.576;9.746;2022-11-20T10:30:14;100984.88;;;1.80;100.00
4767;BME280;2397;53.576;9.746;2022-11-20T10:32:51;100984.16;;;1.66;100.00
4767;BME280;2397;53.576;9.746;2022-11-20T10:35:26;100982.09;;;1.75;100.00
4767;BME280;2397;53.576;9.746;2022-11-20T10:38:03;100975.44;;;1.46;100.00
4767;BME280;2397;53.576;9.746;2022-11-20T10:40:38;100972.19;;;1.49;100.00
4767;BME280;2397;53.576;9.746;2022-11-20T10:43:16;100978.75;;;1.77;100.00
4767;BME280;2397;53.576;9.746;2022-11-20T10:45:53;100972.44;;;1.86;100.00
4767;BME280;2397;53.576;9.746;2022-11-20T10:48:25;100963.75;;;1.99;100.00
4767;BME280;2397;53.576;9.746;2022-11-20T10:51:18;100971.41;;;2.16;100.00
4767;BME280;2397;53.576;9.746;2022-11-20T10:53:55;100966.13;;;2.13;100.00
4767;BME280;2397;53.576;9.746;2022-11-20T10:59:47;100956.16;;;2.17;100.00
4767;BME280;2397;53.576;9.746;2022-11-20T11:02:20;100956.31;;;2.20;100.00
4767;BME280;2397;53.576;9.746;2022-11-20T11:04:49;100950.69;;;2.44;100.00
4767;BME280;2397;53.576;9.746;2022-11-20T11:07:23;100950.81;;;2.47;100.00
4767;BME280;2397;53.576;9.746;2022-11-20T11:09:55;100957.25;;;2.39;100.00
4767;BME280;2397;53.576;9.746;2022-11-20T11:12:25;100960.84;;;2.26;100.00
4767;BME280;2397;53.576;9.746;2022-11-20T11:14:54;100956.13;;;2.34;100.00
4767;BME280;2397;53.576;9.746;2022-11-20T11:17:29;100949.72;;;2.07;100.00
4767;BME280;2397;53.576;9.746;2022-11-20T11:22:31;100943.25;;;1.98;100.00
4767;BME280;2397;53.576;9.746;2022-11-20T11:24:58;100937.06;;;1.92;100.00
4767;BME280;2397;53.576;9.746;2022-11-20T11:27:25;100935.22;;;1.90;100.00
4767;BME280;2397;53.576;9.746;2022-11-20T11:30:03;100944.47;;;2.04;100.00
4767;BME280;2397;53.576;9.746;2022-11-20T11:32:30;100949.72;;;2.07;100.00
4767;BME280;2397;53.576;9.746;2022-11-20T11:35:00;100947.25;;;2.09;100.00
4767;BME280;2397;53.576;9.746;2022-11-20T11:37:32;100943.72;;;2.07;100.00
4767;BME280;2397;53.576;9.746;2022-11-20T11:40:00;100944.50;;;2.22;100.00
4767;BME280;2397;53.576;9.746;2022-11-20T11:42:53;100939.66;;;2.45;100.00
4767;BME280;2397;53.576;9.746;2022-11-20T11:45:21;100938.44;;;2.55;100.00
4767;BME280;2397;53.576;9.746;2022-11-20T11:47:48;100938.97;;;2.66;100.00
4767;BME280;2397;53.576;9.746;2022-11-20T11:50:18;100934.88;;;2.87;100.00
4767;BME280;2397;53.576;9.746;2022-11-20T11:53:02;100935.69;;;2.68;100.00
4767;BME280;2397;53.576;9.746;2022-11-20T11:55:47;100943.84;;;2.61;100.00
4767;BME280;2397;53.576;9.746;2022-11-20T11:58:40;100932.78;;;2.78;100.00
4767;BME280;2397;53.576;9.746;2022-11-20T12:04:29;100931.31;;;2.31;100.00
4767;BME280;2397;53.576;9.746;2022-11-20T12:07:20;100934.84;;;2.17;100.00
4767;BME280;2397;53.576;9.746;2022-11-20T12:10:15;100930.38;;;2.13;100.00
4767;BME280;2397;53.576;9.746;2022-11-20T12:12:45;100939.50;;;1.58;100.00
4767;BME280;2397;53.576;9.746;2022-11-20T12:15:30;100926.81;;;1.76;100.00
4767;BME280;2397;53.576;9.746;2022-11-20T12:17:57;100930.94;;;2.07;100.00
4767;BME280;2397;53.576;9.746;2022-11-20T12:20:29;100934.97;;;1.21;100.00
4767;BME280;2397;53.576;9.746;2022-11-20T12:23:07;100935.66;;;1.33;100.00
4767;BME280;2397;53.576;9.746;2022-11-20T12:25:36;100921.53;;;1.89;100.00
4767;BME280;2397;53.576;9.746;2022-11-20T12:28:28;100913.88;;;2.22;100.00
4767;BME280;2397;53.576;9.746;2022-11-20T12:31:26;100920.66;;;2.05;100.00
4767;BME280;2397;53.576;9.746;2022-11-20T12:34:09;100912.31;;;1.91;100.00
4767;BME280;2397;53.576;9.746;2022-11-20T12:36:50;100911.16;;;2.03;100.00
4767;BME280;2397;53.576;9.746;2022-11-20T12:39:33;100916.53;;;2.78;100.00
4767;BME280;2397;53.576;9.746;2022-11-20T12:42:13;100910.13;;;2.68;100.00
4767;BME280;2397;53.576;9.746;2022-11-20T12:48:41;100913.47;;;2.67;100.00
4767;BME280;2397;53.576;9.746;2022-11-20T12:56:50;100909.31;;;2.69;100.00
4767;BME280;2397;53.576;9.746;2022-11-20T13:02:26;100906.72;;;1.99;100.00
4767;BME280;2397;53.576;9.746;2022-11-20T13:05:32;100900.63;;;2.48;100.00
4767;BME280;2397;53.576;9.746;2022-11-20T13:07:56;100886.00;;;2.63;100.00
4767;BME280;2397;53.576;9.746;2022-11-20T13:13:29;100890.97;;;2.60;100.00
4767;BME280;2397;53.576;9.746;2022-11-20T13:16:03;100894.03;;;2.35;100.00
4767;BME280;2397;53.576;9.746;2022-11-20T13:18:38;100892.75;;;2.26;100.00
4767;BME280;2397;53.576;9.746;2022-11-20T13:21:18;100896.81;;;2.39;100.00
4767;BME280;2397;53.576;9.746;2022-11-20T13:23:45;100894.75;;;2.32;100.00
4767;BME280;2397;53.576;9.746;2022-11-20T13:26:30;100890.25;;;2.44;100.00
4767;BME280;2397;53.576;9.746;2022-11-20T13:29:19;100893.22;;;2.36;100.00
4767;BME280;2397;53.576;9.746;2022-11-20T13:31:47;100888.69;;;2.30;100.00
4767;BME280;2397;53.576;9.746;2022-11-20T13:34:25;100882.22;;;2.55;100.00
4767;BME280;2397;53.576;9.746;2022-11-20T13:36:58;100879.31;;;2.65;100.00
4767;BME280;2397;53.576;9.746;2022-11-20T13:39:28;100880.31;;;2.87;100.00
4767;BME280;2397;53.576;9.746;2022-11-20T13:42:03;100875.69;;;2.97;100.00
4767;BME280;2397;53.576;9.746;2022-11-20T13:44:48;100867.44;;;3.03;100.00
4767;BME280;2397;53.576;9.746;2022-11-20T13:47:24;100872.50;;;2.84;100.00
4767;BME280;2397;53.576;9.746;2022-11-20T13:49:52;100867.47;;;2.85;100.00
4767;BME280;2397;53.576;9.746;2022-11-20T14:01:09;100861.53;;;3.04;100.00
4767;BME280;2397;53.576;9.746;2022-11-20T14:03:37;100857.09;;;2.82;100.00
4767;BME280;2397;53.576;9.746;2022-11-20T14:06:32;100854.91;;;2.54;100.00
4767;BME280;2397;53.576;9.746;2022-11-20T14:09:00;100848.03;;;2.89;100.00
4767;BME280;2397;53.576;9.746;2022-11-20T14:11:28;100853.56;;;2.98;100.00
4767;BME280;2397;53.576;9.746;2022-11-20T14:16:32;100852.75;;;2.99;100.00
4767;BME280;2397;53.576;9.746;2022-11-20T14:21:46;100844.78;;;2.93;100.00
4767;BME280;2397;53.576;9.746;2022-11-20T14:24:18;100853.28;;;2.74;100.00
4767;BME280;2397;53.576;9.746;2022-11-20T14:26:45;100853.34;;;2.75;100.00